Flight Track Log - Related Links

Times and Time Zones

All times are in EDT time to prevent confusion due to time zone crossing. See the SWA796 flight status page for this flight to view local times or setup timezone preferences in your user account.

Time Position Orientation Groundspeed Altitude Reporting Facility
EDT Latitude Longitude Course Direction KTS MPH feet Rate Location/Type
Sat 09:44:50 AM 41.8020 -87.7820 294° West 159 183 2,200  Level FlightAware ADS-B
Sat 09:45:12 AM 41.7890 -87.8050 233° Southwest 219 252 2,500 1,714 Climbing FlightAware ADS-B
Sat 09:45:32 AM 41.7730 -87.8200 215° Southwest 224 258 3,400 2,182 Climbing FlightAware ADS-B
Sat 09:45:56 AM 41.7510 -87.8380 211° Southwest 230 265 4,100 1,500 Climbing FlightAware ADS-B
Sat 09:46:00 AM 41.7470 -87.8390 191° South 234 269 4,100 1,200 Level FlightAware ADS-B
Sat 09:46:06 AM 41.7410 -87.8400 187° South 241 277 4,300 2,400 Climbing FlightAware ADS-B
Sat 09:46:30 AM 41.7120 -87.8320 168° South 266 306 5,300 3,000 Climbing FlightAware ADS-B
Sat 09:46:42 AM 41.6970 -87.8260 163° South 267 307 6,100 3,636 Climbing FlightAware ADS-B
Sat 09:47:03 AM 41.6740 -87.8170 164° South 269 310 7,300 3,429 Climbing FlightAware ADS-B
Sat 09:47:24 AM 41.6470 -87.8070 165° South 274 315 8,500 2,757 Climbing FlightAware ADS-B
Sat 09:47:40 AM 41.6270 -87.8000 165° South 279 321 9,000 2,167 Climbing FlightAware ADS-B
Sat 09:48:00 AM 41.6020 -87.7910 165° South 286 329 9,800 2,893 Climbing FlightAware ADS-B
Sat 09:48:36 AM 41.5570 -87.7750 165° South 285 328 11,700 2,500 Climbing FlightAware ADS-B
Sat 09:49:12 AM 41.5080 -87.7570 165° South 314 361 12,800 1,800 Climbing FlightAware ADS-B
Sat 09:49:46 AM 41.4580 -87.7390 165° South 345 397 13,800 2,486 Climbing FlightAware ADS-B
Sat 09:50:22 AM 41.4010 -87.7250 170° South 344 396 15,700 3,088 Climbing FlightAware ADS-B
Sat 09:50:54 AM 41.3490 -87.7250 180° South 347 399 17,300 2,735 Climbing FlightAware ADS-B
Sat 09:51:30 AM 41.2920 -87.7250 180° South 356 410 18,800 2,486 Climbing FlightAware ADS-B
Sat 09:52:04 AM 41.2350 -87.7250 180° South 364 419 20,200 2,500 Climbing FlightAware ADS-B
Sat 09:52:42 AM 41.1710 -87.7210 177° South 368 423 21,800 2,167 Climbing FlightAware ADS-B
Sat 09:53:16 AM 41.1130 -87.7140 175° South 376 433 22,800 2,118 Climbing FlightAware ADS-B
Sat 09:53:50 AM 41.0540 -87.7050 173° South 377 434 24,200 2,300 Climbing FlightAware ADS-B
Sat 09:54:16 AM 41.0110 -87.6930 168° South 384 442 25,100 1,839 Climbing FlightAware ADS-B
Sat 09:54:52 AM 40.9470 -87.6630 161° South 396 456 26,100 1,644 Climbing FlightAware ADS-B
Sat 09:55:29 AM 40.8840 -87.6340 161° South 406 467 27,100 1,562 Climbing FlightAware ADS-B
Sat 09:56:05 AM 40.8200 -87.6040 160° South 414 476 28,000 1,479 Climbing FlightAware ADS-B
Sat 09:56:42 AM 40.7510 -87.5720 161° South 422 486 28,900 1,412 Climbing FlightAware ADS-B
Sat 09:57:13 AM 40.6950 -87.5450 160° South 427 491 29,600 1,304 Climbing FlightAware ADS-B
Sat 09:57:51 AM 40.6270 -87.5140 161° South 432 497 30,400 1,297 Climbing FlightAware ADS-B
Sat 09:58:27 AM 40.5540 -87.4800 161° South 439 505 31,200 1,273 Climbing FlightAware ADS-B
Sat 09:58:57 AM 40.4950 -87.4530 161° South 444 511 31,800 1,147 Climbing FlightAware ADS-B
Sat 09:59:35 AM 40.4200 -87.4190 161° South 448 516 32,500 1,333 Climbing FlightAware ADS-B
Sat 10:00:09 AM 40.3570 -87.3890 160° South 446 513 33,400 1,457 Climbing FlightAware ADS-B
Sat 10:00:45 AM 40.2850 -87.3560 161° South 445 512 34,200 1,235 Climbing FlightAware ADS-B
Sat 10:01:17 AM 40.2240 -87.3280 161° South 445 512 34,800 1,130 Climbing FlightAware ADS-B
Sat 10:01:54 AM 40.1540 -87.2910 158° South 452 520 35,500 1,054 Climbing FlightAware ADS-B
Sat 10:02:31 AM 40.0850 -87.2360 149° Southeast 457 526 36,100 957 Climbing FlightAware ADS-B
Sat 10:03:03 AM 40.0310 -87.1870 145° Southeast 457 526 36,600 794 Climbing FlightAware ADS-B
Sat 10:03:39 AM 39.9670 -87.1310 146° Southeast 458 527 37,000 343 Climbing FlightAware ADS-B
Sat 10:04:13 AM 39.9080 -87.0830 148° Southeast 459 528 37,000  Level FlightAware ADS-B
Sat 10:04:45 AM 39.8510 -87.0340 147° Southeast 461 531 37,000  Level FlightAware ADS-B
Sat 10:05:30 AM 39.7700 -86.9640 146° Southeast 459 528 37,000  Level FlightAware ADS-B
Sat 10:06:04 AM 39.7080 -86.9100 146° Southeast 460 529 37,000  Level FlightAware ADS-B
Sat 10:06:40 AM 39.6440 -86.8560 147° Southeast 460 529 37,000  Level FlightAware ADS-B
Sat 10:07:18 AM 39.5780 -86.7990 146° Southeast 459 528 37,000  Level FlightAware ADS-B
Sat 10:07:50 AM 39.5200 -86.7500 147° Southeast 456 525 37,000  Level FlightAware ADS-B
Sat 10:08:27 AM 39.4560 -86.6960 147° Southeast 455 524 37,000  Level FlightAware ADS-B
Sat 10:09:00 AM 39.3980 -86.6480 147° Southeast 453 521 37,000  Level FlightAware ADS-B
Sat 10:09:37 AM 39.3330 -86.5920 146° Southeast 452 520 37,000  Level FlightAware ADS-B
Sat 10:10:13 AM 39.2680 -86.5380 147° Southeast 453 521 37,000  Level FlightAware ADS-B
Sat 10:10:48 AM 39.2080 -86.4870 147° Southeast 454 522 37,000  Level FlightAware ADS-B
Sat 10:11:10 AM 39.1730 -86.4580 147° Southeast 455 524 37,000  Level FlightAware ADS-B
Sat 10:12:02 AM 39.0780 -86.3790 147° Southeast 451 519 37,000  Level FlightAware ADS-B
Sat 10:12:35 AM 39.0230 -86.3330 147° Southeast 444 511 37,000  Level FlightAware ADS-B
Sat 10:13:14 AM 38.9560 -86.2770 147° Southeast 442 509 37,000  Level FlightAware ADS-B
Sat 10:13:46 AM 38.8980 -86.2290 147° Southeast 441 507 37,000  Level FlightAware ADS-B
Sat 10:14:18 AM 38.8470 -86.1860 147° Southeast 440 506 37,000  Level FlightAware ADS-B
Sat 10:14:56 AM 38.7780 -86.1360 151° Southeast 434 499 37,000  Level FlightAware ADS-B
Sat 10:15:30 AM 38.7150 -86.0960 154° Southeast 432 497 37,000  Level FlightAware ADS-B
Sat 10:16:05 AM 38.6530 -86.0590 155° Southeast 425 489 37,000  Level FlightAware ADS-B
Sat 10:16:42 AM 38.5870 -86.0330 163° South 419 482 37,000  Level FlightAware ADS-B
Sat 10:17:15 AM 38.5230 -86.0110 165° South 426 490 37,000  Level FlightAware ADS-B
Sat 10:17:50 AM 38.4550 -85.9880 165° South 437 503 37,000  Level FlightAware ADS-B
Sat 10:18:28 AM 38.3790 -85.9620 165° South 437 503 37,000  Level FlightAware ADS-B
Sat 10:19:02 AM 38.3130 -85.9400 165° South 437 503 37,000  Level FlightAware ADS-B
Sat 10:19:38 AM 38.2440 -85.9160 165° South 438 504 37,000  Level FlightAware ADS-B
Sat 10:20:10 AM 38.1810 -85.8940 165° South 438 504 37,000  Level FlightAware ADS-B
Sat 10:20:48 AM 38.1060 -85.8690 165° South 440 506 37,000  Level FlightAware ADS-B
Sat 10:21:20 AM 38.0430 -85.8470 165° South 442 509 37,000  Level FlightAware ADS-B
Sat 10:21:54 AM 37.9770 -85.8250 165° South 445 512 37,000  Level FlightAware ADS-B
Sat 10:22:32 AM 37.9000 -85.7990 165° South 448 516 37,000  Level FlightAware ADS-B
Sat 10:23:08 AM 37.8260 -85.7740 165° South 451 519 37,000  Level FlightAware ADS-B
Sat 10:23:44 AM 37.7570 -85.7510 165° South 453 521 37,000  Level FlightAware ADS-B
Sat 10:24:16 AM 37.6910 -85.7290 165° South 454 522 37,000  Level FlightAware ADS-B
Sat 10:24:52 AM 37.6170 -85.7040 165° South 455 524 37,000  Level FlightAware ADS-B
Sat 10:25:25 AM 37.5540 -85.6830 165° South 456 525 37,000  Level FlightAware ADS-B
Sat 10:26:02 AM 37.4760 -85.6570 165° South 457 526 37,000  Level FlightAware ADS-B
Sat 10:26:38 AM 37.4000 -85.6310 165° South 458 527 37,000  Level FlightAware ADS-B
Sat 10:27:14 AM 37.3260 -85.6070 166° South 456 525 37,000  Level FlightAware ADS-B
Sat 10:27:46 AM 37.2590 -85.5850 165° South 456 525 37,000  Level FlightAware ADS-B
Sat 10:28:22 AM 37.1870 -85.5610 165° South 456 525 37,000  Level FlightAware ADS-B
Sat 10:28:54 AM 37.1210 -85.5390 165° South 456 525 37,000  Level FlightAware ADS-B
Sat 10:29:30 AM 37.0490 -85.5150 165° South 456 525 37,000  Level FlightAware ADS-B
Sat 10:30:02 AM 36.9860 -85.4940 165° South 457 526 37,000  Level FlightAware ADS-B
Sat 10:30:39 AM 36.9090 -85.4690 165° South 458 527 37,000  Level FlightAware ADS-B
Sat 10:31:16 AM 36.8300 -85.4430 165° South 457 526 37,000  Level FlightAware ADS-B
Sat 10:31:53 AM 36.7570 -85.4190 165° South 456 525 37,000  Level FlightAware ADS-B
Sat 10:32:23 AM 36.6940 -85.3990 166° South 454 522 37,000  Level FlightAware ADS-B
Sat 10:33:00 AM 36.6210 -85.3750 165° South 453 521 37,000  Level FlightAware ADS-B
Sat 10:33:38 AM 36.5460 -85.3500 165° South 452 520 37,000  Level FlightAware ADS-B
Sat 10:34:17 AM 36.4650 -85.3240 166° South 450 518 37,000  Level FlightAware ADS-B
Sat 10:34:51 AM 36.4030 -85.3030 165° South 451 519 37,000  Level FlightAware ADS-B
Sat 10:35:31 AM 36.3180 -85.2760 166° South 450 518 37,000  Level FlightAware ADS-B
Sat 10:36:11 AM 36.2380 -85.2500 165° South 452 520 37,000  Level FlightAware ADS-B
Sat 10:36:51 AM 36.1540 -85.2230 165° South 453 521 37,000  Level FlightAware ADS-B
Sat 10:37:22 AM 36.0940 -85.2040 166° South 454 522 37,000  Level FlightAware ADS-B
Sat 10:38:02 AM 36.0090 -85.1760 165° South 455 524 37,000  Level FlightAware ADS-B
Sat 10:38:38 AM 35.9350 -85.1530 166° South 456 525 37,000  Level FlightAware ADS-B
Sat 10:39:13 AM 35.8640 -85.1300 165° South 457 526 37,000  Level FlightAware ADS-B
Sat 10:39:48 AM 35.7920 -85.1070 165° South 458 527 37,000  Level FlightAware ADS-B
Sat 10:40:23 AM 35.7210 -85.0840 165° South 458 527 37,000  Level FlightAware ADS-B
Sat 10:40:55 AM 35.6550 -85.0630 166° South 458 527 37,000  Level FlightAware ADS-B
Sat 10:41:35 AM 35.5750 -85.0380 166° South 457 526 37,000  Level FlightAware ADS-B
Sat 10:42:07 AM 35.5080 -85.0170 166° South 456 525 37,000  Level FlightAware ADS-B
Sat 10:42:42 AM 35.4370 -84.9940 165° South 455 524 37,000  Level FlightAware ADS-B
Sat 10:43:18 AM 35.3610 -84.9700 166° South 453 521 37,000  Level FlightAware ADS-B
Sat 10:43:54 AM 35.2860 -84.9470 166° South 453 521 37,000  Level FlightAware ADS-B
Sat 10:44:27 AM 35.2220 -84.9260 165° South 453 521 37,000  Level FlightAware ADS-B
Sat 10:45:00 AM 35.1530 -84.9050 166° South 454 522 37,000  Level FlightAware ADS-B
Sat 10:45:38 AM 35.0780 -84.8810 165° South 455 524 37,000  Level FlightAware ADS-B
Sat 10:46:14 AM 35.0020 -84.8570 165° South 457 526 37,000  Level FlightAware ADS-B
Sat 10:46:48 AM 34.9310 -84.8350 166° South 459 528 37,000  Level FlightAware ADS-B
Sat 10:47:21 AM 34.8640 -84.8140 166° South 461 531 37,000  Level FlightAware ADS-B
Sat 10:47:57 AM 34.7890 -84.7910 166° South 463 533 37,000  Level FlightAware ADS-B
Sat 10:48:29 AM 34.7240 -84.7710 166° South 465 535 37,000  Level FlightAware ADS-B
Sat 10:49:07 AM 34.6440 -84.7460 166° South 466 536 37,000  Level FlightAware ADS-B
Sat 10:49:43 AM 34.5680 -84.7230 166° South 467 537 37,000  Level FlightAware ADS-B
Sat 10:50:19 AM 34.4920 -84.6990 165° South 467 537 37,000  Level FlightAware ADS-B
Sat 10:50:51 AM 34.4270 -84.6790 166° South 466 536 37,000  Level FlightAware ADS-B
Sat 10:51:29 AM 34.3490 -84.6490 162° South 468 539 37,000  Level FlightAware ADS-B
Sat 10:51:59 AM 34.2860 -84.6230 161° South 467 537 37,000  Level FlightAware ADS-B
Sat 10:52:35 AM 34.2130 -84.5940 162° South 467 537 37,000  Level FlightAware ADS-B
Sat 10:53:09 AM 34.1460 -84.5670 162° South 465 535 37,000  Level FlightAware ADS-B
Sat 10:53:45 AM 34.0690 -84.5370 162° South 466 536 37,000  Level FlightAware ADS-B
Sat 10:54:22 AM 33.9920 -84.5060 162° South 466 536 37,000  Level FlightAware ADS-B
Sat 10:54:56 AM 33.9230 -84.4790 162° South 466 536 37,000  Level FlightAware ADS-B
Sat 10:55:34 AM 33.8440 -84.4480 162° South 466 536 37,000  Level FlightAware ADS-B
Sat 10:56:08 AM 33.7750 -84.4210 162° South 465 535 37,000  Level FlightAware ADS-B
Sat 10:56:40 AM 33.7120 -84.3960 162° South 464 534 37,000  Level FlightAware ADS-B
Sat 10:57:17 AM 33.6350 -84.3660 162° South 463 533 37,000  Level FlightAware ADS-B
Sat 10:57:54 AM 33.5620 -84.3370 162° South 463 533 37,000  Level FlightAware ADS-B
Sat 10:58:28 AM 33.4900 -84.3080 161° South 463 533 37,000  Level FlightAware ADS-B
Sat 10:59:02 AM 33.4240 -84.2820 162° South 464 534 37,000  Level FlightAware ADS-B
Sat 10:59:40 AM 33.3440 -84.2520 163° South 464 534 37,000  Level FlightAware ADS-B
Sat 11:00:12 AM 33.2780 -84.2260 162° South 465 535 37,000  Level FlightAware ADS-B
Sat 11:00:50 AM 33.2020 -84.1960 162° South 466 536 37,000  Level FlightAware ADS-B
Sat 11:01:24 AM 33.1330 -84.1690 162° South 466 536 37,000  Level FlightAware ADS-B
Sat 11:02:00 AM 33.0560 -84.1390 162° South 466 536 37,000  Level FlightAware ADS-B
Sat 11:02:32 AM 32.9930 -84.1150 162° South 466 536 37,000  Level FlightAware ADS-B
Sat 11:03:08 AM 32.9210 -84.0870 162° South 466 536 37,000  Level FlightAware ADS-B
Sat 11:03:42 AM 32.8440 -84.0570 162° South 465 535 37,000  Level FlightAware ADS-B
Sat 11:04:17 AM 32.7750 -84.0310 162° South 464 534 37,000  Level FlightAware ADS-B
Sat 11:04:54 AM 32.7000 -84.0020 162° South 464 534 37,000  Level FlightAware ADS-B
Sat 11:05:30 AM 32.6270 -83.9730 162° South 464 534 37,000  Level FlightAware ADS-B
Sat 11:06:00 AM 32.5640 -83.9500 163° South 464 534 37,000  Level FlightAware ADS-B
Sat 11:06:40 AM 32.4850 -83.9190 162° South 464 534 37,000  Level FlightAware ADS-B
Sat 11:07:12 AM 32.4180 -83.8940 163° South 464 534 37,000  Level FlightAware ADS-B
Sat 11:07:55 AM 32.3290 -83.8600 162° South 464 534 37,000  Level FlightAware ADS-B
Sat 11:09:05 AM 32.2560 -83.8310 161° South 465 535 37,000  Level FlightAware ADS-B
Sat 11:09:37 AM 32.1220 -83.7810 162° South 466 536 37,000  Level FlightAware ADS-B
Sat 11:10:17 AM 32.0520 -83.7540 162° South 466 536 37,000  Level FlightAware ADS-B
Sat 11:10:53 AM 31.9900 -83.7300 162° South 466 536 37,000  Level FlightAware ADS-B
Sat 11:11:07 AM 31.9650 -83.7210 163° South 466 536 37,000  Level FlightAware ADS-B
Sat 11:11:56 AM 31.8800 -83.6880 162° South 466 536 37,000  Level FlightAware ADS-B
Sat 11:12:34 AM 31.7550 -83.6380 161° South 468 539 37,000  Level FlightAware ADS-B
Sat 11:13:09 AM 31.6950 -83.5990 151° Southeast 468 539 37,000  Level FlightAware ADS-B
Sat 11:13:42 AM 31.6270 -83.5520 150° Southeast 467 537 37,000  Level FlightAware ADS-B
Sat 11:14:19 AM 31.5590 -83.5060 150° Southeast 466 536 37,000  Level FlightAware ADS-B
Sat 11:15:02 AM 31.4790 -83.4520 150° Southeast 465 535 37,000  Level FlightAware ADS-B
Sat 11:15:30 AM 31.4270 -83.4170 150° Southeast 465 535 37,000  Level FlightAware ADS-B
Sat 11:16:10 AM 31.3570 -83.3710 151° Southeast 463 533 37,000  Level FlightAware ADS-B
Sat 11:16:48 AM 31.2800 -83.3180 150° Southeast 461 531 37,000  Level FlightAware ADS-B
Sat 11:17:23 AM 31.2180 -83.2770 151° Southeast 460 529 37,000 -429 Level FlightAware ADS-B
Sat 11:17:58 AM 31.1510 -83.2320 150° Southeast 459 528 36,500 -1,612 Descending FlightAware ADS-B
Sat 11:18:30 AM 31.0920 -83.1920 150° Southeast 458 527 35,200 -2,507 Descending FlightAware ADS-B
Sat 11:19:05 AM 31.0300 -83.1510 150° Southeast 459 528 33,700 -2,696 Descending FlightAware ADS-B
Sat 11:19:39 AM 30.9640 -83.1070 150° Southeast 459 528 32,100 -2,417 Descending FlightAware ADS-B
Sat 11:20:17 AM 30.8960 -83.0620 150° Southeast 450 518 30,800 -2,167 Descending FlightAware ADS-B
Sat 11:20:51 AM 30.8340 -83.0200 150° Southeast 440 506 29,500 -2,113 Descending FlightAware ADS-B
Sat 11:21:28 AM 30.7700 -82.9780 151° Southeast 429 494 28,300 -1,971 Descending FlightAware ADS-B
Sat 11:22:01 AM 30.7150 -82.9410 150° Southeast 420 483 27,200 -1,130 Descending FlightAware ADS-B
Sat 11:22:37 AM 30.6530 -82.9000 150° Southeast 418 481 27,000 -169 Descending FlightAware ADS-B
Sat 11:23:12 AM 30.5960 -82.8620 150° Southeast 421 484 27,000  Level FlightAware ADS-B
Sat 11:23:44 AM 30.5440 -82.8270 150° Southeast 420 483 27,000  Level FlightAware ADS-B
Sat 11:24:20 AM 30.4840 -82.7880 151° Southeast 420 483 27,000  Level FlightAware ADS-B
Sat 11:24:57 AM 30.4160 -82.7430 150° Southeast 420 483 27,000  Level FlightAware ADS-B
Sat 11:25:31 AM 30.3580 -82.7050 151° Southeast 421 484 27,000  Level FlightAware ADS-B
Sat 11:26:06 AM 30.3020 -82.6680 150° Southeast 421 484 27,000  Level FlightAware ADS-B
Sat 11:26:44 AM 30.2390 -82.6270 151° Southeast 422 486 27,000  Level FlightAware ADS-B
Sat 11:27:13 AM 30.1900 -82.5950 151° Southeast 421 484 27,000  Level FlightAware ADS-B
Sat 11:27:52 AM 30.1200 -82.5500 151° Southeast 422 486 27,000 -85 Level FlightAware ADS-B
Sat 11:28:24 AM 30.0640 -82.5130 150° Southeast 416 479 26,900 -1,235 Descending FlightAware ADS-B
Sat 11:29:00 AM 30.0050 -82.4750 151° Southeast 410 472 25,600 -1,629 Descending FlightAware ADS-B
Sat 11:29:34 AM 29.9470 -82.4410 153° Southeast 411 473 25,000 -486 Descending FlightAware ADS-B
Sat 11:30:14 AM 29.8770 -82.4070 157° South 412 474 25,000  Level FlightAware ADS-B
Sat 11:30:47 AM 29.8190 -82.3790 157° South 412 474 25,000  Level FlightAware ADS-B
Sat 11:31:22 AM 29.7570 -82.3490 157° South 413 475 25,000  Level FlightAware ADS-B
Sat 11:31:57 AM 29.6980 -82.3210 158° South 413 475 25,000  Level FlightAware ADS-B
Sat 11:32:33 AM 29.6330 -82.2890 157° South 413 475 25,000 -348 Level FlightAware ADS-B
Sat 11:33:06 AM 29.5750 -82.2610 157° South 402 463 24,600 -1,200 Descending FlightAware ADS-B
Sat 11:33:38 AM 29.5220 -82.2360 158° South 403 464 23,700 -1,913 Descending FlightAware ADS-B
Sat 11:34:15 AM 29.4560 -82.2040 157° South 393 452 22,400 -2,057 Descending FlightAware ADS-B
Sat 11:34:48 AM 29.4010 -82.1780 158° South 387 445 21,300 -1,973 Descending FlightAware ADS-B
Sat 11:35:28 AM 29.3350 -82.1460 157° South 380 437 20,000 -1,859 Descending FlightAware ADS-B
Sat 11:35:59 AM 29.2850 -82.1220 157° South 373 429 19,100 -1,765 Descending FlightAware ADS-B
Sat 11:36:36 AM 29.2270 -82.0950 158° South 367 422 18,000 -1,840 Descending FlightAware ADS-B
Sat 11:37:14 AM 29.1720 -82.0690 158° South 363 418 16,800 -2,087 Descending FlightAware ADS-B
Sat 11:37:45 AM 29.1200 -82.0430 156° South 359 413 15,600 -2,091 Descending FlightAware ADS-B
Sat 11:38:20 AM 29.0660 -82.0180 158° South 354 407 14,500 -1,890 Descending FlightAware ADS-B
Sat 11:38:58 AM 29.0090 -81.9910 157° South 349 402 13,300 -1,917 Descending FlightAware ADS-B
Sat 11:39:32 AM 28.9580 -81.9670 158° South 343 395 12,200 -1,859 Descending FlightAware ADS-B
Sat 11:40:09 AM 28.9040 -81.9410 157° South 337 388 11,100 -1,529 Descending FlightAware ADS-B
Sat 11:40:23 AM 28.8870 -81.9290 148° Southeast 332 382 10,900 -692 Descending FlightAware ADS-B
Sat 11:40:35 AM 28.8740 -81.9130 133° Southeast 329 379 10,800 -894 Descending FlightAware ADS-B
Sat 11:41:10 AM 28.8440 -81.8630 124° Southeast 325 374 10,200 -947 Descending FlightAware ADS-B
Sat 11:41:32 AM 28.8260 -81.8320 124° Southeast 320 368 9,900 -391 Descending FlightAware ADS-B
Sat 11:41:56 AM 28.8070 -81.7990 123° Southeast 319 367 9,900  Level FlightAware ADS-B
Sat 11:42:15 AM 28.7910 -81.7720 124° Southeast 318 366 9,900  Level FlightAware ADS-B
Sat 11:42:36 AM 28.7740 -81.7420 123° Southeast 317 365 9,900  Level FlightAware ADS-B
Sat 11:42:54 AM 28.7590 -81.7170 124° Southeast 318 366 9,900  Level FlightAware ADS-B
Sat 11:43:15 AM 28.7420 -81.6870 123° Southeast 318 366 9,900 -133 Level FlightAware ADS-B
Sat 11:43:39 AM 28.7230 -81.6540 123° Southeast 303 349 9,800 -273 Descending FlightAware ADS-B
Sat 11:43:59 AM 28.7090 -81.6280 122° Southeast 287 330 9,700 -585 Descending FlightAware ADS-B
Sat 11:44:20 AM 28.6970 -81.6040 120° Southeast 280 322 9,400 -955 Descending FlightAware ADS-B
Sat 11:44:43 AM 28.6810 -81.5720 120° Southeast 279 321 9,000 -682 Descending FlightAware ADS-B
Sat 11:45:04 AM 28.6670 -81.5450 121° Southeast 278 320 8,900 -146 Descending FlightAware ADS-B
Sat 11:45:24 AM 28.6540 -81.5210 122° Southeast 276 318 8,900  Level FlightAware ADS-B
Sat 11:45:43 AM 28.6420 -81.4970 120° Southeast 274 315 8,900  Level FlightAware ADS-B
Sat 11:46:07 AM 28.6260 -81.4670 121° Southeast 273 314 8,900  Level FlightAware ADS-B
Sat 11:46:28 AM 28.6110 -81.4410 123° Southeast 273 314 8,900  Level FlightAware ADS-B
Sat 11:46:40 AM 28.6000 -81.4300 139° Southeast 277 319 8,900  Level FlightAware ADS-B
Sat 11:46:46 AM 28.5930 -81.4270 159° South 280 322 8,900  Level FlightAware ADS-B
Sat 11:46:57 AM 28.5780 -81.4240 170° South 285 328 8,900 -231 Level FlightAware ADS-B
Sat 11:47:12 AM 28.5580 -81.4240 180° South 275 316 8,800 -146 Descending FlightAware ADS-B
Sat 11:47:38 AM 28.5270 -81.4240 180° South 253 291 8,800 -391 Level FlightAware ADS-B
Sat 11:47:58 AM 28.5050 -81.4240 180° South 246 283 8,500 -923 Descending FlightAware ADS-B
Sat 11:48:17 AM 28.4830 -81.4240 180° South 243 280 8,200 -1,024 Descending FlightAware ADS-B
Sat 11:48:39 AM 28.4580 -81.4240 180° South 243 280 7,800 -1,043 Descending FlightAware ADS-B
Sat 11:49:03 AM 28.4310 -81.4240 180° South 241 277 7,400 -977 Descending FlightAware ADS-B
Sat 11:49:22 AM 28.4110 -81.4240 180° South 237 273 7,100 -923 Descending FlightAware ADS-B
Sat 11:49:42 AM 28.3910 -81.4200 170° South 229 264 6,800 -1,105 Descending FlightAware ADS-B
Sat 11:50:00 AM 28.3750 -81.4140 162° South 225 259 6,400 -1,333 Descending FlightAware ADS-B
Sat 11:50:27 AM 28.3510 -81.4070 166° South 217 250 5,800 -1,556 Descending FlightAware ADS-B
Sat 11:50:54 AM 28.3220 -81.3970 163° South 198 228 5,000 -1,875 Descending FlightAware ADS-B
Sat 11:51:15 AM 28.3030 -81.3890 160° South 194 223 4,300 -2,063 Descending FlightAware ADS-B
Sat 11:51:26 AM 28.2980 -81.3800 122° Southeast 188 216 3,900 -2,000 Descending FlightAware ADS-B
Sat 11:51:33 AM 28.2970 -81.3740 101° East 188 216 3,700 -2,000 Descending FlightAware ADS-B
Sat 11:51:56 AM 28.3010 -81.3500 79° East 188 216 2,900 -1,538 Descending FlightAware ADS-B
Sat 11:52:12 AM 28.3080 -81.3370 59° Northeast 182 209 2,700 -1,200 Descending FlightAware ADS-B
Sat 11:52:31 AM 28.3180 -81.3250 47° Northeast 173 199 2,200 -1,463 Descending FlightAware ADS-B
Sat 11:52:53 AM 28.3310 -81.3140 37° Northeast 173 199 1,700 -700 Descending FlightAware ADS-B
Sat 11:53:31 AM 28.3530 -81.2960 36° Northeast 165 190 1,500 -500 Descending FlightAware ADS-B
Sat 11:54:05 AM 28.3380 -81.3080 215° Southwest 173 199 1,100 -1,075 Descending FlightAware ADS-B
Sat 11:54:38 AM 28.4000 -81.3000 215° Southwest 144 166 300 -1,455 Descending Orlando TRACON
Sat 11:56:00 AM 28.4167 -81.3000 24° Northeast  Level FlightAware Approximate
Sat 12:03:00 PM 28.4294 -81.3090 24° Northeast  Level Estimated
Sat 12:04:00 PM 28.4294 -81.3090 24° Northeast  Level Estimated
Sat 12:05:00 PM 28.4294 -81.3090 24° Northeast  Level Estimated
Sat 12:06:00 PM 28.4294 -81.3090 24° Northeast  Level Estimated

Login

Don't have an account? Register now (free) for customized features, flight alerts, and more!